createdAt,value
2022-11-27T00:01:22.754Z,92.73
2022-11-27T00:03:49.698Z,93.15
2022-11-27T00:06:19.262Z,93.22
2022-11-27T00:08:46.729Z,92.95
2022-11-27T00:11:19.483Z,93.03
2022-11-27T00:13:46.523Z,92.89
2022-11-27T00:16:13.939Z,92.89
2022-11-27T00:18:40.828Z,92.33
2022-11-27T00:21:11.956Z,92.16
2022-11-27T00:23:38.772Z,92.25
2022-11-27T00:26:06.404Z,92.69
2022-11-27T00:28:33.636Z,92.64
2022-11-27T00:31:06.615Z,93.33
2022-11-27T00:33:33.539Z,94.08
2022-11-27T00:36:04.633Z,93.24
2022-11-27T00:38:34.696Z,93.41
2022-11-27T00:41:10.919Z,93.98
2022-11-27T00:43:43.983Z,94.11
2022-11-27T00:46:16.218Z,94.08
2022-11-27T00:48:43.726Z,93.68
2022-11-27T00:51:13.589Z,93.78
2022-11-27T00:53:40.796Z,93.47
2022-11-27T00:56:07.973Z,93.57
2022-11-27T00:58:34.688Z,93.37
2022-11-27T01:01:05.466Z,93.59
2022-11-27T01:03:33.201Z,93.03
2022-11-27T01:06:04.282Z,92.77
2022-11-27T01:08:31.184Z,92.90
2022-11-27T01:10:58.887Z,93.01
2022-11-27T01:13:27.616Z,92.91
2022-11-27T01:16:03.804Z,92.22
2022-11-27T01:18:30.843Z,91.97
2022-11-27T01:20:57.571Z,92.32
2022-11-27T01:23:24.804Z,91.99
2022-11-27T01:25:53.686Z,92.13
2022-11-27T01:28:22.351Z,91.88
2022-11-27T01:30:49.768Z,91.82
2022-11-27T01:33:16.784Z,91.63
2022-11-27T01:35:43.560Z,91.35
2022-11-27T01:38:10.228Z,91.54
2022-11-27T01:40:36.928Z,91.17
2022-11-27T01:43:03.644Z,91.57
2022-11-27T01:45:30.388Z,91.71
2022-11-27T01:47:59.436Z,90.71
2022-11-27T01:50:37.246Z,90.91
2022-11-27T01:53:15.284Z,90.40
2022-11-27T01:55:51.309Z,90.82
2022-11-27T01:58:21.158Z,90.66
2022-11-27T02:00:47.923Z,91.09
2022-11-27T02:03:15.870Z,90.54
2022-11-27T02:05:42.720Z,90.58
2022-11-27T02:08:12.552Z,90.54
2022-11-27T02:10:47.684Z,89.57
2022-11-27T02:13:22.274Z,89.83
2022-11-27T02:16:17.944Z,90.35
2022-11-27T02:19:04.055Z,90.68
2022-11-27T02:21:56.600Z,90.37
2022-11-27T02:24:48.362Z,89.29
2022-11-27T02:27:39.230Z,89.52
2022-11-27T02:30:06.597Z,89.31
2022-11-27T02:32:40.848Z,89.29
2022-11-27T02:35:16.648Z,89.87
2022-11-27T02:37:46.976Z,89.72
2022-11-27T02:40:36.733Z,88.65
2022-11-27T02:43:09.772Z,88.75
2022-11-27T02:45:42.082Z,89.17
2022-11-27T02:48:09.594Z,89.17
2022-11-27T02:50:38.316Z,89.07
2022-11-27T02:53:09.263Z,88.82
2022-11-27T02:55:38.337Z,89.01
2022-11-27T02:58:09.853Z,88.82
2022-11-27T03:00:37.652Z,88.34
2022-11-27T03:03:06.449Z,88.86
2022-11-27T03:05:36.069Z,89.25
2022-11-27T03:08:09.775Z,88.38
2022-11-27T03:10:57.615Z,88.70
2022-11-27T03:13:25.008Z,89.41
2022-11-27T03:16:04.649Z,88.83
2022-11-27T03:18:41.217Z,88.49
2022-11-27T03:21:17.341Z,88.88
2022-11-27T03:23:43.978Z,88.83
2022-11-27T03:26:10.658Z,88.96
2022-11-27T03:28:37.406Z,89.56
2022-11-27T03:31:04.190Z,88.99
2022-11-27T03:33:30.875Z,88.63
2022-11-27T03:35:57.636Z,89.16
2022-11-27T03:38:24.437Z,89.19
2022-11-27T03:41:03.253Z,88.57
2022-11-27T03:43:33.604Z,88.46
2022-11-27T03:46:02.493Z,88.95
2022-11-27T03:48:38.059Z,88.72
2022-11-27T03:51:13.509Z,88.68
2022-11-27T03:54:00.206Z,88.43
2022-11-27T03:56:40.109Z,88.07
2022-11-27T03:59:15.368Z,88.21
2022-11-27T04:01:42.473Z,89.20
2022-11-27T04:04:09.524Z,89.08
2022-11-27T04:06:36.356Z,90.29
2022-11-27T04:09:03.589Z,87.17
2022-11-27T04:11:30.320Z,84.96
2022-11-27T04:13:58.789Z,84.59
2022-11-27T04:16:25.701Z,84.03
2022-11-27T04:18:52.423Z,83.42
2022-11-27T04:21:19.261Z,83.65
2022-11-27T04:23:46.080Z,84.63
2022-11-27T04:26:12.895Z,84.49
2022-11-27T04:28:39.622Z,83.76
2022-11-27T04:31:06.338Z,84.45
2022-11-27T04:33:33.099Z,84.42
2022-11-27T04:35:59.765Z,84.64
2022-11-27T04:38:26.537Z,84.74
2022-11-27T04:40:53.579Z,84.68
2022-11-27T04:43:20.576Z,84.90
2022-11-27T04:45:47.288Z,85.34
2022-11-27T04:48:14.047Z,85.27
2022-11-27T04:50:40.720Z,85.43
2022-11-27T04:53:07.373Z,85.98
2022-11-27T04:55:35.127Z,85.25
2022-11-27T04:58:01.884Z,84.63
2022-11-27T05:00:28.656Z,85.21
2022-11-27T05:02:55.531Z,85.49
2022-11-27T05:05:22.264Z,85.91
2022-11-27T05:07:49.187Z,85.42
2022-11-27T05:10:16.141Z,85.82
2022-11-27T05:12:42.952Z,85.84
2022-11-27T05:15:09.839Z,86.09
2022-11-27T05:17:36.508Z,85.90
2022-11-27T05:20:03.634Z,85.82
2022-11-27T05:22:30.396Z,85.45
2022-11-27T05:24:57.210Z,85.97
2022-11-27T05:27:23.982Z,86.23
2022-11-27T05:29:50.754Z,85.72
2022-11-27T05:32:17.478Z,86.19
2022-11-27T05:34:44.158Z,86.31
2022-11-27T05:37:17.897Z,86.43
2022-11-27T05:39:46.041Z,86.65
2022-11-27T05:42:12.765Z,85.93
2022-11-27T05:44:39.708Z,86.34
2022-11-27T05:47:06.597Z,86.37
2022-11-27T05:49:33.623Z,85.99
2022-11-27T05:52:00.371Z,85.84
2022-11-27T05:54:27.015Z,85.96
2022-11-27T05:56:53.785Z,85.92
2022-11-27T05:59:20.561Z,85.59
2022-11-27T06:01:49.463Z,85.75
2022-11-27T06:04:16.483Z,85.50
2022-11-27T06:06:43.231Z,85.46
2022-11-27T06:09:13.270Z,85.27
2022-11-27T06:11:40.783Z,85.04
2022-11-27T06:14:11.302Z,85.11
2022-11-27T06:16:38.145Z,85.28
2022-11-27T06:19:04.914Z,85.12
2022-11-27T06:21:31.636Z,85.16
2022-11-27T06:23:58.416Z,85.40
2022-11-27T06:26:30.010Z,84.96
2022-11-27T06:28:57.956Z,84.73
2022-11-27T06:31:30.464Z,85.05
2022-11-27T06:33:57.717Z,85.58
2022-11-27T06:36:36.293Z,85.62
2022-11-27T06:39:04.881Z,85.89
2022-11-27T06:41:32.004Z,86.37
2022-11-27T06:43:59.895Z,86.33
2022-11-27T06:46:27.226Z,85.54
2022-11-27T06:48:54.798Z,85.35
2022-11-27T06:51:26.414Z,84.08
2022-11-27T06:53:53.537Z,84.81
2022-11-27T06:56:23.838Z,84.62
2022-11-27T06:58:52.295Z,84.97
2022-11-27T07:01:19.898Z,85.92
2022-11-27T07:03:49.091Z,85.54
2022-11-27T07:06:21.544Z,86.02
2022-11-27T07:08:48.343Z,86.18
2022-11-27T07:11:18.524Z,86.20
2022-11-27T07:13:46.617Z,86.47
2022-11-27T07:16:13.842Z,86.35
2022-11-27T07:18:43.077Z,86.19
2022-11-27T07:21:10.431Z,86.18
2022-11-27T07:23:37.463Z,85.81
2022-11-27T07:26:08.706Z,85.73
2022-11-27T07:28:35.416Z,86.11
2022-11-27T07:31:02.655Z,86.62
2022-11-27T07:33:29.363Z,86.29
2022-11-27T07:36:06.957Z,86.36
2022-11-27T07:38:33.749Z,86.68
2022-11-27T07:41:04.166Z,86.59
2022-11-27T07:43:31.848Z,87.09
2022-11-27T07:45:58.957Z,86.66
2022-11-27T07:48:25.880Z,86.96
2022-11-27T07:50:52.678Z,87.24
2022-11-27T07:53:19.344Z,88.00
2022-11-27T07:55:46.111Z,87.29
2022-11-27T07:58:12.910Z,86.94
2022-11-27T08:00:39.703Z,87.22
2022-11-27T08:03:06.419Z,86.82
2022-11-27T08:05:38.201Z,87.20
2022-11-27T08:08:05.121Z,87.33
2022-11-27T08:10:35.251Z,87.37
2022-11-27T08:13:01.934Z,87.15
2022-11-27T08:15:28.644Z,87.40
2022-11-27T08:17:55.317Z,87.38
2022-11-27T08:20:22.193Z,87.21
2022-11-27T08:22:49.056Z,87.54
2022-11-27T08:25:15.785Z,87.84
2022-11-27T08:27:42.670Z,87.76
2022-11-27T08:30:10.222Z,87.83
2022-11-27T08:32:41.176Z,88.11
2022-11-27T08:35:08.313Z,87.78
2022-11-27T08:37:35.292Z,88.17
2022-11-27T08:40:02.376Z,88.31
2022-11-27T08:42:29.107Z,87.84
2022-11-27T08:44:55.900Z,87.63
2022-11-27T08:47:22.550Z,87.46
2022-11-27T08:49:49.309Z,88.04
2022-11-27T08:52:16.047Z,87.52
2022-11-27T08:54:43.177Z,87.47
2022-11-27T08:57:09.955Z,86.96
2022-11-27T08:59:36.741Z,85.77
2022-11-27T09:02:03.586Z,86.26
2022-11-27T09:04:30.270Z,87.38
2022-11-27T09:06:58.788Z,87.59
2022-11-27T09:09:25.802Z,86.88
2022-11-27T09:11:54.419Z,86.68
2022-11-27T09:14:21.219Z,86.68
2022-11-27T09:16:48.039Z,86.81
2022-11-27T09:19:14.970Z,86.81
2022-11-27T09:21:41.708Z,87.06
2022-11-27T09:24:09.096Z,87.48
2022-11-27T09:26:35.901Z,88.30
2022-11-27T09:29:02.805Z,88.29
2022-11-27T09:31:29.608Z,88.56
2022-11-27T09:33:57.929Z,88.03
2022-11-27T09:36:25.570Z,87.56
2022-11-27T09:38:52.645Z,87.50
2022-11-27T09:41:44.336Z,87.91
2022-11-27T09:44:16.901Z,87.95
2022-11-27T09:46:44.701Z,87.57
2022-11-27T09:49:19.087Z,87.49
2022-11-27T09:52:11.185Z,87.88
2022-11-27T09:54:44.088Z,88.38
2022-11-27T09:57:17.418Z,88.42
2022-11-27T09:59:49.039Z,88.54
2022-11-27T10:02:18.623Z,88.43
2022-11-27T10:05:12.088Z,88.07
2022-11-27T10:08:16.399Z,89.31
2022-11-27T10:10:58.171Z,89.44
2022-11-27T10:13:54.156Z,88.99
2022-11-27T10:16:31.623Z,89.02
2022-11-27T10:19:06.148Z,89.75
2022-11-27T10:21:46.377Z,89.68
2022-11-27T10:24:57.972Z,89.72
2022-11-27T10:27:33.111Z,89.30
2022-11-27T10:30:01.253Z,89.37
2022-11-27T10:32:54.496Z,89.10
2022-11-27T10:35:19.577Z,89.30
2022-11-27T10:37:50.539Z,89.53
2022-11-27T10:41:34.342Z,89.77
2022-11-27T10:44:21.622Z,89.21
2022-11-27T10:46:49.079Z,89.10
2022-11-27T10:49:15.865Z,89.13
2022-11-27T10:51:42.777Z,89.08
2022-11-27T10:54:19.331Z,89.51
2022-11-27T10:56:56.170Z,89.23
2022-11-27T10:59:32.978Z,88.76
2022-11-27T11:02:03.235Z,88.87
2022-11-27T11:04:39.233Z,89.04
2022-11-27T11:07:24.836Z,89.16
2022-11-27T11:09:52.069Z,89.33
2022-11-27T11:12:21.304Z,89.12
2022-11-27T11:14:59.369Z,89.29
2022-11-27T11:17:37.117Z,89.18
2022-11-27T11:20:32.909Z,89.81
2022-11-27T11:23:00.040Z,89.12
2022-11-27T11:25:26.842Z,88.98
2022-11-27T11:27:53.609Z,88.92
2022-11-27T11:30:28.767Z,88.42
2022-11-27T11:33:02.398Z,88.36
2022-11-27T11:35:32.760Z,88.28
2022-11-27T11:37:59.519Z,88.58
2022-11-27T11:40:30.348Z,88.55
2022-11-27T11:43:00.854Z,88.17
2022-11-27T11:45:33.162Z,87.95
2022-11-27T11:48:03.449Z,88.34
2022-11-27T11:50:34.777Z,88.37
2022-11-27T11:53:36.808Z,87.74
2022-11-27T11:56:15.753Z,88.28
2022-11-27T11:59:04.141Z,88.46
2022-11-27T12:01:54.138Z,88.08
2022-11-27T12:04:57.356Z,87.23
2022-11-27T12:07:52.380Z,88.14
2022-11-27T12:10:31.340Z,88.28
2022-11-27T12:13:06.878Z,88.13
2022-11-27T12:15:43.866Z,87.95
2022-11-27T12:18:24.647Z,87.76
2022-11-27T12:21:10.144Z,87.67
2022-11-27T12:24:03.976Z,87.38
2022-11-27T12:27:08.999Z,87.72
2022-11-27T12:29:47.130Z,87.49
2022-11-27T12:32:25.574Z,87.45
2022-11-27T12:35:27.433Z,87.66
2022-11-27T12:38:02.675Z,87.70
2022-11-27T12:40:58.437Z,87.77
2022-11-27T12:43:33.127Z,88.71
2022-11-27T12:46:04.993Z,89.33
2022-11-27T12:48:45.448Z,89.78
2022-11-27T12:51:27.676Z,89.96
2022-11-27T12:54:06.619Z,89.80
2022-11-27T12:56:42.764Z,89.94
2022-11-27T12:59:33.670Z,90.62
2022-11-27T13:02:09.715Z,90.11
2022-11-27T13:04:47.737Z,90.28
2022-11-27T13:07:20.565Z,90.08
2022-11-27T13:09:51.250Z,90.53
2022-11-27T13:12:24.352Z,90.54
2022-11-27T13:15:04.145Z,90.92
2022-11-27T13:17:39.765Z,90.81
2022-11-27T13:20:14.975Z,90.95
2022-11-27T13:22:42.700Z,91.11
2022-11-27T13:25:14.656Z,90.92
2022-11-27T13:27:45.114Z,90.97
2022-11-27T13:30:20.392Z,91.07
2022-11-27T13:32:53.915Z,91.19
2022-11-27T13:35:28.082Z,91.39
2022-11-27T13:37:59.046Z,91.72
2022-11-27T13:40:36.952Z,91.45
2022-11-27T13:43:06.539Z,91.29
2022-11-27T13:45:37.102Z,91.31
2022-11-27T13:48:23.599Z,91.62
2022-11-27T13:50:50.383Z,91.42
2022-11-27T13:53:17.179Z,91.65
2022-11-27T13:55:54.463Z,91.78
2022-11-27T13:58:35.882Z,92.00
2022-11-27T14:01:20.170Z,92.33
2022-11-27T14:03:47.664Z,92.05
2022-11-27T14:06:23.120Z,91.93
2022-11-27T14:08:56.079Z,91.67
2022-11-27T14:11:34.884Z,92.30
2022-11-27T14:14:03.624Z,92.07
2022-11-27T14:16:35.294Z,92.41
2022-11-27T14:19:04.396Z,92.41
2022-11-27T14:21:38.256Z,92.60
2022-11-27T14:24:25.504Z,92.98
2022-11-27T14:26:53.578Z,92.68
2022-11-27T14:29:22.006Z,92.71
2022-11-27T14:32:00.381Z,93.04
2022-11-27T14:34:34.127Z,93.14
2022-11-27T14:37:01.404Z,92.97
2022-11-27T14:39:36.910Z,93.38
2022-11-27T14:42:05.794Z,93.42
2022-11-27T14:44:32.884Z,93.99
2022-11-27T14:47:02.775Z,94.15
2022-11-27T14:49:30.897Z,94.85
2022-11-27T14:52:07.811Z,94.98
2022-11-27T14:54:37.988Z,94.49
2022-11-27T14:57:05.801Z,94.70
2022-11-27T14:59:32.914Z,94.37
2022-11-27T15:02:03.033Z,94.30
2022-11-27T15:04:35.734Z,93.97
2022-11-27T15:07:44.039Z,93.96
2022-11-27T15:10:36.264Z,93.50
2022-11-27T15:13:04.249Z,93.46
2022-11-27T15:15:34.758Z,93.42
2022-11-27T15:18:06.402Z,93.24
2022-11-27T15:20:44.241Z,93.23
2022-11-27T15:23:24.332Z,93.24
2022-11-27T15:25:59.693Z,93.41
2022-11-27T15:28:32.232Z,92.15
2022-11-27T15:30:58.934Z,92.92
2022-11-27T15:33:32.494Z,92.32
2022-11-27T15:36:20.708Z,90.75
2022-11-27T15:38:50.693Z,91.38
2022-11-27T15:41:22.788Z,91.35
2022-11-27T15:43:49.597Z,91.73
2022-11-27T15:46:23.853Z,91.37
2022-11-27T15:48:51.011Z,91.68
2022-11-27T15:51:17.902Z,90.20
2022-11-27T15:53:44.587Z,90.33
2022-11-27T15:56:11.268Z,89.70
2022-11-27T15:58:38.152Z,89.86
2022-11-27T16:01:06.323Z,89.86
2022-11-27T16:03:33.222Z,90.75
2022-11-27T16:06:04.846Z,90.72
2022-11-27T16:08:31.748Z,91.30
2022-11-27T16:11:03.529Z,91.40
2022-11-27T16:13:30.350Z,91.49
2022-11-27T16:16:08.174Z,91.17
2022-11-27T16:18:35.044Z,90.45
2022-11-27T16:21:05.988Z,90.55
2022-11-27T16:23:35.328Z,90.82
2022-11-27T16:26:02.092Z,90.83
2022-11-27T16:28:30.106Z,90.39
2022-11-27T16:30:59.362Z,89.92
2022-11-27T16:33:27.388Z,89.74
2022-11-27T16:35:54.181Z,89.69
2022-11-27T16:38:21.143Z,89.08
2022-11-27T16:40:49.294Z,89.31
2022-11-27T16:43:16.429Z,89.85
2022-11-27T16:45:43.974Z,89.63
2022-11-27T16:48:10.864Z,89.20
2022-11-27T16:50:37.773Z,88.80
2022-11-27T16:53:04.543Z,88.17
2022-11-27T16:55:33.144Z,88.07
2022-11-27T16:58:00.023Z,87.33
2022-11-27T17:00:28.615Z,87.46
2022-11-27T17:02:55.661Z,87.85
2022-11-27T17:05:22.425Z,88.46
2022-11-27T17:07:49.152Z,88.75
2022-11-27T17:10:16.022Z,89.18
2022-11-27T17:12:43.795Z,89.47
2022-11-27T17:15:10.773Z,89.75
2022-11-27T17:17:40.225Z,89.24
2022-11-27T17:20:08.095Z,89.07
2022-11-27T17:22:34.925Z,89.19
2022-11-27T17:25:02.368Z,88.64
2022-11-27T17:27:29.361Z,88.52
2022-11-27T17:29:56.216Z,88.57
2022-11-27T17:32:24.631Z,88.54
2022-11-27T17:34:51.408Z,87.95
2022-11-27T17:37:18.194Z,88.26
2022-11-27T17:39:45.064Z,88.66
2022-11-27T17:42:14.636Z,89.04
2022-11-27T17:44:43.899Z,89.37
2022-11-27T17:47:10.777Z,89.21
2022-11-27T17:49:38.573Z,88.66
2022-11-27T17:52:06.675Z,88.49
2022-11-27T17:54:37.279Z,88.69
2022-11-27T17:57:05.285Z,89.12
2022-11-27T17:59:32.185Z,89.27
2022-11-27T18:01:59.602Z,88.29
2022-11-27T18:04:30.679Z,88.42
2022-11-27T18:06:58.474Z,88.42
2022-11-27T18:09:25.177Z,88.89
2022-11-27T18:11:54.884Z,88.92
2022-11-27T18:14:22.081Z,89.12
2022-11-27T18:16:49.011Z,88.81
2022-11-27T18:19:15.924Z,87.61
2022-11-27T18:21:42.745Z,86.34
2022-11-27T18:24:25.474Z,85.71
2022-11-27T18:27:09.508Z,85.53
2022-11-27T18:29:38.278Z,84.78
2022-11-27T18:32:05.525Z,84.73
2022-11-27T18:34:32.404Z,84.38
2022-11-27T18:37:00.671Z,84.57
2022-11-27T18:39:27.635Z,84.31
2022-11-27T18:41:54.287Z,84.02
2022-11-27T18:44:21.030Z,83.40
2022-11-27T18:46:47.747Z,84.01
2022-11-27T18:49:14.454Z,84.88
2022-11-27T18:51:41.372Z,84.58
2022-11-27T18:54:08.350Z,83.58
2022-11-27T18:56:37.052Z,82.62
2022-11-27T18:59:05.688Z,82.53
2022-11-27T19:01:41.282Z,82.08
2022-11-27T19:04:09.226Z,81.28
2022-11-27T19:06:36.835Z,81.46
2022-11-27T19:09:04.164Z,80.69
2022-11-27T19:11:32.573Z,80.88
2022-11-27T19:13:59.769Z,80.79
2022-11-27T19:16:32.525Z,80.25
2022-11-27T19:19:00.816Z,80.38
2022-11-27T19:21:29.372Z,79.95
2022-11-27T19:23:57.767Z,80.14
2022-11-27T19:26:26.525Z,79.80
2022-11-27T19:28:55.915Z,80.49
2022-11-27T19:31:23.695Z,79.63
2022-11-27T19:33:52.113Z,78.67
2022-11-27T19:36:19.552Z,79.02
2022-11-27T19:38:46.400Z,78.83
2022-11-27T19:41:16.187Z,78.58
2022-11-27T19:43:44.357Z,78.43
2022-11-27T19:46:20.897Z,77.06
2022-11-27T19:48:48.001Z,78.48
2022-11-27T19:51:15.402Z,78.82
2022-11-27T19:53:42.637Z,79.30
2022-11-27T19:56:10.080Z,78.78
2022-11-27T19:58:37.697Z,78.87
2022-11-27T20:01:09.521Z,78.32
2022-11-27T20:03:36.307Z,78.23
2022-11-27T20:06:11.260Z,77.99
2022-11-27T20:08:39.278Z,78.38
2022-11-27T20:11:09.985Z,78.12
2022-11-27T20:13:36.832Z,78.60
2022-11-27T20:16:08.116Z,77.91
2022-11-27T20:18:35.410Z,78.55
2022-11-27T20:21:17.125Z,77.27
2022-11-27T20:23:45.216Z,78.23
2022-11-27T20:26:15.371Z,77.97
2022-11-27T20:28:42.685Z,77.86
2022-11-27T20:31:14.727Z,77.87
2022-11-27T20:33:41.540Z,78.35
2022-11-27T20:36:16.913Z,76.58
2022-11-27T20:38:43.875Z,77.76
2022-11-27T20:41:12.918Z,77.83
2022-11-27T20:43:40.406Z,77.52
2022-11-27T20:46:10.721Z,77.82
2022-11-27T20:48:38.780Z,76.98
2022-11-27T20:51:10.335Z,76.94
2022-11-27T20:53:38.522Z,76.72
2022-11-27T20:56:07.037Z,76.89
2022-11-27T20:58:38.623Z,76.62
2022-11-27T21:01:26.420Z,75.68
2022-11-27T21:03:55.153Z,76.90
2022-11-27T21:06:25.669Z,76.67
2022-11-27T21:08:53.586Z,76.53
2022-11-27T21:11:25.619Z,75.80
2022-11-27T21:13:56.120Z,76.05
2022-11-27T21:16:24.621Z,76.23
2022-11-27T21:18:59.427Z,76.21
2022-11-27T21:21:29.537Z,75.90
2022-11-27T21:23:56.844Z,75.85
2022-11-27T21:26:24.083Z,76.17
2022-11-27T21:28:51.318Z,76.03
2022-11-27T21:31:20.981Z,75.77
2022-11-27T21:33:56.969Z,75.41
2022-11-27T21:36:29.579Z,75.88
2022-11-27T21:39:00.025Z,75.79
2022-11-27T21:41:28.021Z,75.67
2022-11-27T21:43:56.705Z,75.33
2022-11-27T21:46:24.452Z,75.44
2022-11-27T21:48:52.925Z,75.90
2022-11-27T21:51:21.461Z,76.05
2022-11-27T21:53:49.632Z,75.70
2022-11-27T21:56:18.164Z,75.65
2022-11-27T21:58:44.981Z,75.75
2022-11-27T22:01:14.923Z,75.96
2022-11-27T22:03:44.296Z,76.94
2022-11-27T22:06:13.388Z,78.55
2022-11-27T22:08:44.121Z,76.78
2022-11-27T22:11:16.515Z,76.15
2022-11-27T22:13:43.484Z,77.40
2022-11-27T22:16:19.631Z,76.66
2022-11-27T22:18:48.260Z,76.66
2022-11-27T22:21:16.030Z,76.43
2022-11-27T22:23:43.219Z,76.39
2022-11-27T22:26:13.079Z,75.97
2022-11-27T22:28:40.417Z,76.28
2022-11-27T22:31:22.425Z,75.21
2022-11-27T22:33:49.384Z,76.16
2022-11-27T22:36:16.220Z,75.91
2022-11-27T22:38:44.340Z,75.78
2022-11-27T22:41:12.042Z,76.13
2022-11-27T22:43:39.285Z,76.09
2022-11-27T22:46:07.638Z,76.18
2022-11-27T22:48:34.740Z,76.30
2022-11-27T22:51:01.581Z,76.00
2022-11-27T22:53:28.908Z,75.03
2022-11-27T22:55:55.815Z,75.18
2022-11-27T22:58:22.731Z,74.96
2022-11-27T23:00:56.659Z,75.46
2022-11-27T23:03:23.623Z,76.13
2022-11-27T23:05:50.548Z,76.07
2022-11-27T23:08:19.035Z,76.57
2022-11-27T23:10:47.466Z,76.38
2022-11-27T23:13:14.747Z,76.34
2022-11-27T23:15:42.042Z,76.43
2022-11-27T23:18:08.823Z,76.38
2022-11-27T23:20:40.418Z,75.75
2022-11-27T23:23:07.182Z,76.01
2022-11-27T23:25:33.810Z,76.23
2022-11-27T23:28:00.560Z,76.60
2022-11-27T23:30:27.327Z,76.57
2022-11-27T23:32:54.081Z,76.29
2022-11-27T23:35:20.945Z,76.22
2022-11-27T23:37:47.897Z,76.64
2022-11-27T23:40:14.985Z,76.62
2022-11-27T23:42:42.767Z,76.33
2022-11-27T23:45:10.116Z,76.55
2022-11-27T23:47:36.879Z,76.43
2022-11-27T23:50:05.346Z,75.70
2022-11-27T23:52:31.971Z,76.33
2022-11-27T23:54:58.755Z,76.39
2022-11-27T23:57:25.386Z,76.48
2022-11-27T23:59:52.084Z,76.74
